createdAt,value
2018-08-09T00:01:55.985Z,100032.73
2018-08-09T00:04:25.996Z,100034.35
2018-08-09T00:06:56.030Z,100039.44
2018-08-09T00:09:26.046Z,100035.63
2018-08-09T00:11:55.964Z,100030.37
2018-08-09T00:14:26.111Z,100035.55
2018-08-09T00:16:55.988Z,100045.54
2018-08-09T00:19:26.012Z,100036.83
2018-08-09T00:21:56.013Z,100037.06
2018-08-09T00:24:26.023Z,100048.69
2018-08-09T00:26:56.117Z,100046.99
2018-08-09T00:29:25.957Z,100050.98
2018-08-09T00:31:56.084Z,100049.34
2018-08-09T00:34:25.957Z,100046.54
2018-08-09T00:36:56.063Z,100055.73
2018-08-09T00:39:26.067Z,100058.71
2018-08-09T00:41:56.019Z,100058.94
2018-08-09T00:44:26.136Z,100032.59
2018-08-09T00:46:56.077Z,100057.21
2018-08-09T00:49:26.104Z,100061.77
2018-08-09T00:51:55.981Z,100051.13
2018-08-09T00:54:26.054Z,100058.68
2018-08-09T00:56:56.131Z,100057.78
2018-08-09T00:59:26.012Z,100057.47
2018-08-09T01:01:55.962Z,100062.83
2018-08-09T01:04:26.063Z,100057.31
2018-08-09T01:06:56.089Z,100061.06
2018-08-09T01:09:25.932Z,100060.13
2018-08-09T01:11:56.023Z,100063.90
2018-08-09T01:14:26.372Z,100067.67
2018-08-09T01:16:56.342Z,100069.52
2018-08-09T01:19:26.163Z,100068.36
2018-08-09T01:21:56.046Z,99962.73
2018-08-09T01:24:29.963Z,100065.09
2018-08-09T01:27:00.001Z,100066.89
2018-08-09T01:29:30.289Z,100067.13
2018-08-09T01:32:00.785Z,100067.50
2018-08-09T01:34:30.963Z,100071.05
2018-08-09T01:37:01.033Z,100077.92
2018-08-09T01:39:31.017Z,100078.11
2018-08-09T01:42:11.642Z,100084.18
2018-08-09T01:44:41.449Z,100089.00
2018-08-09T01:47:11.392Z,100088.71
2018-08-09T01:49:41.204Z,100086.19
2018-08-09T01:52:11.133Z,100089.00
2018-08-09T01:54:41.028Z,100086.59
2018-08-09T01:57:10.953Z,100089.81
2018-08-09T01:59:41.013Z,100092.52
2018-08-09T02:02:11.090Z,100092.48
2018-08-09T02:04:41.015Z,100084.65
2018-08-09T02:07:11.052Z,100084.87
2018-08-09T02:09:40.936Z,100091.92
2018-08-09T02:12:11.044Z,100091.13
2018-08-09T02:14:40.942Z,100095.18
2018-08-09T02:17:11.068Z,100088.52
2018-08-09T02:19:40.962Z,100089.06
2018-08-09T02:22:10.995Z,100083.66
2018-08-09T02:24:41.015Z,100083.95
2018-08-09T02:27:15.968Z,100080.95
2018-08-09T02:29:45.998Z,100090.17
2018-08-09T02:32:15.898Z,100095.42
2018-08-09T02:34:45.964Z,100099.66
2018-08-09T02:37:16.073Z,100094.42
2018-08-09T02:39:45.960Z,100097.42
2018-08-09T02:42:16.205Z,100099.88
2018-08-09T02:44:46.708Z,100100.89
2018-08-09T02:47:16.900Z,100108.71
2018-08-09T02:49:47.049Z,100106.05
2018-08-09T02:52:17.029Z,100105.13
2018-08-09T02:54:46.872Z,100102.42
2018-08-09T02:57:16.740Z,100103.59
2018-08-09T02:59:46.596Z,100104.94
2018-08-09T03:02:16.458Z,100106.84
2018-08-09T03:04:46.395Z,100096.23
2018-08-09T03:07:16.903Z,100107.89
2018-08-09T03:09:46.756Z,100109.13
2018-08-09T03:12:16.658Z,100116.69
2018-08-09T03:14:46.522Z,100120.45
2018-08-09T03:17:16.536Z,100118.52
2018-08-09T03:19:46.538Z,100116.86
2018-08-09T03:22:16.388Z,100112.98
2018-08-09T03:24:47.023Z,100119.15
2018-08-09T03:27:17.879Z,100116.91
2018-08-09T03:29:56.318Z,100124.13
2018-08-09T03:32:26.188Z,100122.73
2018-08-09T03:34:56.092Z,100123.25
2018-08-09T03:37:25.929Z,100121.84
2018-08-09T03:39:55.764Z,100127.25
2018-08-09T03:42:25.900Z,100127.17
2018-08-09T03:44:55.750Z,100133.88
2018-08-09T03:47:25.740Z,100128.10
2018-08-09T03:49:56.697Z,100132.41
2018-08-09T03:52:28.169Z,100135.31
2018-08-09T03:54:58.986Z,100129.78
2018-08-09T03:57:29.879Z,100132.86
2018-08-09T04:00:00.816Z,100133.62
2018-08-09T04:02:32.134Z,100135.78
2018-08-09T04:05:02.876Z,100139.54
2018-08-09T04:07:33.805Z,100145.53
2018-08-09T04:10:04.889Z,100148.78
2018-08-09T04:12:35.899Z,100151.99
2018-08-09T04:15:08.785Z,100158.75
2018-08-09T04:17:38.731Z,100158.75
2018-08-09T04:20:08.689Z,100158.75
2018-08-09T04:22:39.992Z,100159.88
2018-08-09T04:25:11.693Z,100157.48
2018-08-09T04:27:42.065Z,100156.17
2018-08-09T04:30:12.973Z,100155.67
2018-08-09T04:32:43.829Z,100156.17
2018-08-09T04:35:14.737Z,100160.83
2018-08-09T04:37:45.745Z,100166.69
2018-08-09T04:40:17.089Z,100165.94
2018-08-09T04:42:48.024Z,100170.12
2018-08-09T04:45:19.045Z,100169.66
2018-08-09T04:47:49.933Z,100159.77
2018-08-09T04:50:20.827Z,100176.16
2018-08-09T04:52:51.709Z,100180.44
2018-08-09T04:55:23.057Z,100185.08
2018-08-09T04:57:53.938Z,100178.91
2018-08-09T05:00:24.776Z,100175.91
2018-08-09T05:02:56.131Z,100173.51
2018-08-09T05:05:27.023Z,100166.75
2018-08-09T05:07:57.978Z,100169.95
2018-08-09T05:10:29.091Z,100174.95
2018-08-09T05:12:59.944Z,100174.00
2018-08-09T05:15:31.557Z,100177.89
2018-08-09T05:18:04.669Z,100177.03
2018-08-09T05:20:34.600Z,100173.80
2018-08-09T05:23:04.794Z,100180.22
2018-08-09T05:25:34.727Z,100179.03
2018-08-09T05:28:06.159Z,100183.27
2018-08-09T05:30:37.001Z,100186.09
2018-08-09T05:33:13.949Z,100181.68
2018-08-09T05:35:43.862Z,100185.27
2018-08-09T05:38:13.785Z,100179.81
2018-08-09T05:40:43.685Z,100179.34
2018-08-09T05:43:13.689Z,100181.38
2018-08-09T05:45:43.569Z,100181.52
2018-08-09T05:48:14.033Z,100190.63
2018-08-09T05:50:44.996Z,100194.87
2018-08-09T05:53:15.968Z,100187.13
2018-08-09T05:55:46.972Z,100194.52
2018-08-09T05:58:17.843Z,100192.65
2018-08-09T06:00:48.793Z,100190.84
2018-08-09T06:03:20.122Z,100194.56
2018-08-09T06:05:51.235Z,100200.37
2018-08-09T06:08:22.113Z,100200.37
2018-08-09T06:10:52.982Z,100201.59
2018-08-09T06:13:24.006Z,100200.95
2018-08-09T06:15:54.910Z,100197.27
2018-08-09T06:18:25.801Z,100199.03
2018-08-09T06:20:56.666Z,100203.77
2018-08-09T06:23:27.928Z,100210.92
2018-08-09T06:25:58.664Z,100211.30
2018-08-09T06:28:31.248Z,100202.02
2018-08-09T06:31:01.127Z,100204.12
2018-08-09T06:33:32.038Z,100205.06
2018-08-09T06:36:10.305Z,100211.44
2018-08-09T06:38:40.201Z,100208.33
2018-08-09T06:41:10.056Z,100211.46
2018-08-09T06:43:39.856Z,100209.97
2018-08-09T06:46:09.706Z,100213.15
2018-08-09T06:48:40.003Z,100201.62
2018-08-09T06:51:09.872Z,100194.98
2018-08-09T06:53:39.781Z,100201.95
2018-08-09T06:56:11.264Z,100207.25
2018-08-09T06:58:43.152Z,100204.93
2018-08-09T07:01:13.020Z,100208.32
2018-08-09T07:03:43.910Z,100206.83
2018-08-09T07:06:14.933Z,100204.22
2018-08-09T07:08:45.710Z,100191.77
2018-08-09T07:11:16.952Z,100194.02
2018-08-09T07:13:47.849Z,100189.70
2018-08-09T07:16:18.685Z,100199.05
2018-08-09T07:18:50.077Z,100198.66
2018-08-09T07:21:20.928Z,100204.75
2018-08-09T07:23:51.792Z,100205.95
2018-08-09T07:26:22.883Z,100212.28
2018-08-09T07:28:54.128Z,100205.77
2018-08-09T07:31:24.594Z,100204.75
2018-08-09T07:33:55.162Z,100202.80
2018-08-09T07:36:25.992Z,100210.97
2018-08-09T07:38:56.868Z,100207.41
2018-08-09T07:41:27.697Z,100209.91
2018-08-09T07:43:59.095Z,100211.38
2018-08-09T07:46:30.824Z,100207.87
2018-08-09T07:49:00.833Z,100211.45
2018-08-09T07:51:31.904Z,100214.59
2018-08-09T07:54:03.457Z,100209.70
2018-08-09T07:56:34.002Z,100212.78
2018-08-09T07:59:05.292Z,100207.09
2018-08-09T08:01:36.117Z,100203.61
2018-08-09T08:04:07.101Z,100200.88
2018-08-09T08:06:38.080Z,100203.37
2018-08-09T08:09:11.415Z,100205.56
2018-08-09T08:11:41.985Z,100203.39
2018-08-09T08:14:12.353Z,100207.48
2018-08-09T08:16:42.260Z,100212.71
2018-08-09T08:19:13.042Z,100218.42
2018-08-09T08:21:44.030Z,100223.61
2018-08-09T08:24:15.264Z,100220.05
2018-08-09T08:26:45.983Z,100226.36
2018-08-09T08:29:17.077Z,100223.06
2018-08-09T08:31:47.125Z,100221.69
2018-08-09T08:34:18.776Z,100217.30
2018-08-09T08:36:49.452Z,100222.73
2018-08-09T08:39:20.104Z,100216.13
2018-08-09T08:41:51.289Z,100209.01
2018-08-09T08:44:23.512Z,100209.80
2018-08-09T08:46:53.394Z,100204.52
2018-08-09T08:49:23.973Z,100206.16
2018-08-09T08:52:16.871Z,100209.97
2018-08-09T08:54:47.022Z,100210.72
2018-08-09T08:57:17.177Z,100208.18
2018-08-09T08:59:47.213Z,100212.52
2018-08-09T09:02:17.149Z,100202.29
2018-08-09T09:04:47.105Z,100207.11
2018-08-09T09:07:17.272Z,100208.94
2018-08-09T09:09:47.427Z,100209.50
2018-08-09T09:12:22.903Z,100210.25
2018-08-09T09:14:52.970Z,100211.31
2018-08-09T09:17:22.982Z,100211.47
2018-08-09T09:19:53.361Z,100216.97
2018-08-09T09:22:24.400Z,100214.21
2018-08-09T09:24:54.510Z,100210.94
2018-08-09T09:27:24.357Z,100215.03
2018-08-09T09:29:54.245Z,100206.95
2018-08-09T09:32:24.530Z,100205.34
2018-08-09T09:34:54.780Z,100203.19
2018-08-09T09:37:24.999Z,100204.38
2018-08-09T09:39:54.934Z,100205.39
2018-08-09T09:42:25.269Z,100209.91
2018-08-09T09:44:55.714Z,100202.70
2018-08-09T09:47:25.561Z,100200.05
2018-08-09T09:49:55.548Z,100200.09
2018-08-09T09:52:25.436Z,100198.10
2018-08-09T09:54:55.637Z,100193.44
2018-08-09T09:57:25.577Z,100188.93
2018-08-09T09:59:55.430Z,100195.33
2018-08-09T10:02:25.322Z,100190.94
2018-08-09T10:04:55.208Z,100190.66
2018-08-09T10:07:25.103Z,100187.45
2018-08-09T10:09:56.126Z,100190.88
2018-08-09T10:12:25.976Z,100180.05
2018-08-09T10:14:57.333Z,100186.20
2018-08-09T10:17:27.935Z,100178.45
2018-08-09T10:19:58.938Z,100179.27
2018-08-09T10:22:29.774Z,100175.40
2018-08-09T10:25:01.210Z,100177.94
2018-08-09T10:27:31.966Z,100175.81
2018-08-09T10:30:02.882Z,100168.69
2018-08-09T10:32:33.717Z,100158.92
2018-08-09T10:35:04.827Z,100153.23
2018-08-09T10:37:35.750Z,100146.08
2018-08-09T10:40:07.010Z,100138.37
2018-08-09T10:42:37.821Z,100140.09
2018-08-09T10:45:08.692Z,100141.87
2018-08-09T10:47:40.073Z,100142.61
2018-08-09T10:50:11.025Z,100131.67
2018-08-09T10:52:41.896Z,100133.86
2018-08-09T10:55:12.836Z,100135.84
2018-08-09T10:57:43.838Z,100133.62
2018-08-09T11:00:14.841Z,100130.02
2018-08-09T11:02:45.763Z,100124.52
2018-08-09T11:05:16.826Z,100123.80
2018-08-09T11:07:47.696Z,100110.77
2018-08-09T11:10:19.101Z,100112.38
2018-08-09T11:12:49.977Z,100102.53
2018-08-09T11:15:20.932Z,100107.16
2018-08-09T11:17:57.959Z,100100.91
2018-08-09T11:20:28.830Z,100096.30
2018-08-09T11:22:59.068Z,100090.02
2018-08-09T11:25:29.133Z,100087.09
2018-08-09T11:27:59.832Z,100081.73
2018-08-09T11:30:30.294Z,100085.22
2018-08-09T11:33:00.161Z,100085.63
2018-08-09T11:35:30.126Z,100083.34
2018-08-09T11:38:00.114Z,100082.51
2018-08-09T11:40:31.020Z,100076.33
2018-08-09T11:43:01.936Z,100062.55
2018-08-09T11:45:33.253Z,100068.25
2018-08-09T11:48:04.015Z,100067.00
2018-08-09T11:50:34.837Z,100059.91
2018-08-09T11:53:04.751Z,100052.51
2018-08-09T11:55:35.678Z,100046.39
2018-08-09T11:58:07.288Z,100042.71
2018-08-09T12:02:02.071Z,100027.61
2018-08-09T12:04:32.278Z,100026.28
2018-08-09T12:07:02.323Z,100019.75
2018-08-09T12:09:32.412Z,100011.78
2018-08-09T12:12:02.626Z,100007.04
2018-08-09T12:14:33.347Z,100007.69
2018-08-09T12:17:03.222Z,100005.11
2018-08-09T12:19:33.182Z,100001.86
2018-08-09T12:22:03.067Z,100000.24
2018-08-09T12:24:33.016Z,100002.65
2018-08-09T12:27:03.094Z,100003.80
2018-08-09T12:29:33.241Z,100011.33
2018-08-09T12:32:03.264Z,100011.33
2018-08-09T12:34:33.165Z,100004.19
2018-08-09T12:37:03.021Z,100004.58
2018-08-09T12:39:33.066Z,100000.36
2018-08-09T12:42:03.055Z,100012.13
2018-08-09T12:44:33.513Z,100012.38
2018-08-09T12:47:03.369Z,100006.64
2018-08-09T12:49:33.400Z,100001.05
2018-08-09T12:52:03.318Z,100004.55
2018-08-09T12:54:33.562Z,100001.79
2018-08-09T12:57:03.766Z,100006.66
2018-08-09T13:13:28.393Z,100020.00
2018-08-09T13:15:58.565Z,100034.17
2018-08-09T13:18:28.905Z,100040.68
2018-08-09T13:20:58.908Z,100046.73
2018-08-09T13:23:29.083Z,99867.87
2018-08-09T13:25:59.457Z,100041.82
2018-08-09T13:28:29.337Z,100043.19
2018-08-09T13:30:59.165Z,100037.05
2018-08-09T13:33:28.981Z,100040.72
2018-08-09T13:35:59.072Z,100026.63
2018-08-09T13:38:29.180Z,100036.09
2018-08-09T13:40:59.028Z,100030.66
2018-08-09T13:43:29.072Z,100030.37
2018-08-09T13:45:59.230Z,100048.10
2018-08-09T13:48:29.096Z,100047.40
2018-08-09T13:50:59.071Z,100041.66
2018-08-09T13:53:29.435Z,100028.31
2018-08-09T13:55:59.406Z,100023.48
2018-08-09T13:58:29.395Z,100016.20
2018-08-09T14:00:59.573Z,100026.75
2018-08-09T14:03:29.873Z,100042.60
2018-08-09T14:06:00.009Z,100048.28
2018-08-09T14:08:30.887Z,100036.66
2018-08-09T14:11:00.934Z,100017.02
2018-08-09T14:13:31.762Z,100018.42
2018-08-09T14:16:01.764Z,100008.38
2018-08-09T14:18:32.169Z,100008.45
2018-08-09T14:21:02.338Z,100002.14
2018-08-09T14:23:32.242Z,99997.81
2018-08-09T14:26:02.241Z,100013.97
2018-08-09T14:28:32.222Z,100013.19
2018-08-09T14:31:02.378Z,100014.06
2018-08-09T14:33:32.667Z,100012.74
2018-08-09T14:36:02.501Z,100011.14
2018-08-09T14:38:32.762Z,100016.37
2018-08-09T14:41:03.386Z,99999.96
2018-08-09T14:43:33.721Z,99993.92
2018-08-09T14:46:04.060Z,99983.18
2018-08-09T14:48:34.036Z,99970.23
2018-08-09T14:51:04.098Z,99973.38
2018-08-09T14:53:34.061Z,99971.53
2018-08-09T14:56:03.989Z,99966.31
2018-08-09T14:58:34.137Z,99966.25
2018-08-09T15:01:03.990Z,99962.67
2018-08-09T15:03:34.062Z,99965.47
2018-08-09T15:06:04.322Z,99965.55
2018-08-09T15:08:34.277Z,99964.44
2018-08-09T15:11:04.363Z,99964.69
2018-08-09T15:13:34.222Z,99951.81
2018-08-09T15:16:04.175Z,99952.68
2018-08-09T15:18:34.171Z,99954.94
2018-08-09T15:21:04.462Z,99948.98
2018-08-09T15:23:34.461Z,99950.27
2018-08-09T15:26:04.483Z,99943.47
2018-08-09T15:28:34.739Z,99939.44
2018-08-09T15:31:05.059Z,99932.57
2018-08-09T15:33:35.097Z,99932.57
2018-08-09T15:36:05.088Z,99933.55
2018-08-09T15:38:35.107Z,99930.81
2018-08-09T15:41:08.272Z,99924.48
2018-08-09T15:43:38.143Z,99929.69
2018-08-09T15:46:08.675Z,99922.56
2018-08-09T15:48:39.138Z,99929.16
2018-08-09T15:51:08.966Z,99925.36
2018-08-09T15:53:38.997Z,99909.74
2018-08-09T15:56:08.874Z,99917.73
2018-08-09T15:58:39.046Z,99921.19
2018-08-09T16:01:08.913Z,99930.64
2018-08-09T16:03:39.579Z,99850.58
2018-08-09T16:06:09.435Z,99923.81
2018-08-09T16:08:39.358Z,99926.87
2018-08-09T16:11:09.724Z,99927.84
2018-08-09T16:13:40.246Z,99916.67
2018-08-09T16:16:10.132Z,99920.27
2018-08-09T16:18:40.176Z,99919.09
2018-08-09T16:21:10.192Z,99916.95
2018-08-09T16:23:40.225Z,99915.47
2018-08-09T16:26:10.644Z,99912.50
2018-08-09T16:28:40.883Z,99905.64
2018-08-09T16:31:11.083Z,99898.96
2018-08-09T16:33:41.174Z,99899.06
2018-08-09T16:36:11.529Z,99893.47
2018-08-09T16:38:41.772Z,99894.66
2018-08-09T16:41:12.601Z,99902.79
2018-08-09T16:43:42.561Z,99900.71
2018-08-09T16:46:12.573Z,99895.35
2018-08-09T16:48:42.544Z,99890.73
2018-08-09T16:51:12.378Z,99889.00
2018-08-09T16:53:42.242Z,99890.05
2018-08-09T16:56:12.566Z,99878.63
2018-08-09T16:58:42.407Z,99880.26
2018-08-09T17:01:12.377Z,99880.45
2018-08-09T17:03:42.916Z,99879.94
2018-08-09T17:06:13.101Z,99878.16
2018-08-09T17:08:42.944Z,99878.86
2018-08-09T17:11:12.899Z,99882.40
2018-08-09T17:13:44.173Z,99882.20
2018-08-09T17:16:15.015Z,99885.31
2018-08-09T17:18:46.344Z,99882.41
2018-08-09T17:21:17.801Z,99879.10
2018-08-09T17:23:47.777Z,99879.36
2018-08-09T17:26:18.797Z,99870.87
2018-08-09T17:28:49.628Z,99873.41
2018-08-09T17:31:20.368Z,99869.46
2018-08-09T17:33:51.008Z,99864.08
2018-08-09T17:36:22.037Z,99870.77
2018-08-09T17:38:52.973Z,99872.08
2018-08-09T17:41:24.020Z,99869.41
2018-08-09T17:44:03.301Z,99875.42
2018-08-09T17:46:33.717Z,99873.53
2018-08-09T17:49:03.685Z,99875.22
2018-08-09T17:51:35.852Z,99878.35
2018-08-09T17:54:05.862Z,99873.98
2018-08-09T17:56:35.933Z,99872.42
2018-08-09T17:59:06.569Z,99871.89
2018-08-09T18:01:36.419Z,99870.02
2018-08-09T18:04:06.473Z,99870.27
2018-08-09T18:06:37.011Z,99866.27
2018-08-09T18:09:10.565Z,99866.27
2018-08-09T18:11:40.921Z,99863.94
2018-08-09T18:14:10.937Z,99870.17
2018-08-09T18:16:40.762Z,99866.70
2018-08-09T18:19:11.014Z,99863.52
2018-08-09T18:21:41.280Z,99861.75
2018-08-09T18:24:11.554Z,99856.23
2018-08-09T18:26:41.464Z,99863.60
2018-08-09T18:29:11.358Z,99865.45
2018-08-09T18:31:41.318Z,99864.58
2018-08-09T18:34:11.515Z,99690.71
2018-08-09T18:36:41.637Z,99869.78
2018-08-09T18:39:12.996Z,99873.66
2018-08-09T18:41:42.977Z,99871.98
2018-08-09T18:44:13.993Z,99873.35
2018-08-09T18:46:43.732Z,99877.49
2018-08-09T18:49:13.845Z,99877.05
2018-08-09T18:51:44.041Z,99878.16
2018-08-09T18:57:07.553Z,99874.89
2018-08-09T18:59:37.671Z,99871.05
2018-08-09T19:02:08.142Z,99877.05
2018-08-09T19:04:38.445Z,99877.62
2018-08-09T19:07:08.753Z,99885.52
2018-08-09T19:09:38.975Z,99872.16
2018-08-09T19:12:09.445Z,99877.05
2018-08-09T19:14:39.402Z,99871.13
2018-08-09T19:17:09.964Z,99874.89
2018-08-09T19:19:39.865Z,99878.48
2018-08-09T19:22:10.170Z,99875.83
2018-08-09T19:24:40.269Z,99871.16
2018-08-09T19:27:10.303Z,99876.95
2018-08-09T19:29:40.273Z,99879.16
2018-08-09T19:32:10.261Z,99879.19
2018-08-09T19:34:40.204Z,99880.25
2018-08-09T19:37:10.135Z,99877.52
2018-08-09T19:39:40.195Z,99879.48
2018-08-09T19:42:10.100Z,99876.80
2018-08-09T19:44:39.965Z,99883.84
2018-08-09T19:47:09.962Z,99885.53
2018-08-09T19:49:39.892Z,99883.62
2018-08-09T19:52:10.112Z,99881.16
2018-08-09T19:54:40.027Z,99881.47
2018-08-09T19:57:10.389Z,99881.44
2018-08-09T19:59:40.255Z,99881.20
2018-08-09T20:02:10.388Z,99875.70
2018-08-09T20:04:40.531Z,99877.92
2018-08-09T20:07:10.779Z,99882.30
2018-08-09T20:09:40.929Z,99881.23
2018-08-09T20:12:11.349Z,99887.19
2018-08-09T20:14:41.500Z,99882.26
2018-08-09T20:17:12.121Z,99884.51
2018-08-09T20:19:42.739Z,99880.70
2018-08-09T20:22:17.317Z,99884.80
2018-08-09T20:24:48.025Z,99891.59
2018-08-09T20:27:18.112Z,99896.30
2018-08-09T20:29:48.158Z,99892.48
2018-08-09T20:32:18.471Z,99891.38
2018-08-09T20:34:49.177Z,99891.39
2018-08-09T20:37:19.309Z,99865.00
2018-08-09T20:39:49.384Z,99900.44
2018-08-09T20:42:19.317Z,99890.36
2018-08-09T20:44:49.163Z,99894.18
2018-08-09T20:47:19.368Z,99895.81
2018-08-09T20:49:49.429Z,99896.39
2018-08-09T20:52:19.350Z,99901.83
2018-08-09T20:54:49.409Z,99898.84
2018-08-09T20:57:19.760Z,99896.37
2018-08-09T20:59:49.852Z,99903.19
2018-08-09T21:02:19.960Z,99900.47
2018-08-09T21:04:50.314Z,99908.09
2018-08-09T21:07:20.484Z,99905.94
2018-08-09T21:09:50.492Z,99913.29
2018-08-09T21:12:21.008Z,99914.66
2018-08-09T21:14:51.230Z,99914.39
2018-08-09T21:17:21.645Z,99916.31
2018-08-09T21:19:52.088Z,99914.12
2018-08-09T21:22:21.932Z,99918.75
2018-08-09T21:24:52.310Z,99923.95
2018-08-09T21:27:22.736Z,99913.88
2018-08-09T21:29:53.202Z,99922.54
2018-08-09T21:32:23.153Z,99918.72
2018-08-09T21:34:56.207Z,99919.27
2018-08-09T21:37:26.629Z,99917.36
2018-08-09T21:39:56.525Z,99924.45
2018-08-09T21:42:27.151Z,99929.06
2018-08-09T21:44:57.643Z,99919.80
2018-08-09T21:47:28.083Z,99922.00
2018-08-09T21:49:58.094Z,99925.25
2018-08-09T21:52:28.028Z,99932.33
2018-08-09T21:54:58.192Z,99927.70
2018-08-09T21:57:28.095Z,99927.41
2018-08-09T21:59:58.066Z,99928.48
2018-08-09T22:02:29.469Z,99927.38
2018-08-09T22:05:04.210Z,99920.04
2018-08-09T22:07:38.910Z,99929.88
2018-08-09T22:10:13.821Z,99929.84
2018-08-09T22:12:49.387Z,99937.48
2018-08-09T22:15:23.965Z,99932.57
2018-08-09T22:17:58.961Z,99941.02
2018-08-09T22:20:33.619Z,99944.81
2018-08-09T22:23:04.074Z,99941.75
2018-08-09T22:25:34.024Z,99939.57
2018-08-09T22:28:03.986Z,99948.29
2018-08-09T22:30:33.971Z,99946.15
2018-08-09T22:33:03.911Z,99940.09
2018-08-09T22:35:33.851Z,99949.05
2018-08-09T22:38:03.746Z,99946.58
2018-08-09T22:40:34.044Z,99955.60
2018-08-09T22:43:03.861Z,99953.37
2018-08-09T22:45:34.260Z,99950.05
2018-08-09T22:48:04.112Z,99954.91
2018-08-09T22:50:33.934Z,99950.00
2018-08-09T22:53:03.791Z,99947.78
2018-08-09T22:55:34.044Z,99948.61
2018-08-09T22:58:04.860Z,99951.86
2018-08-09T23:00:34.818Z,99954.52
2018-08-09T23:03:06.051Z,99953.25
2018-08-09T23:05:35.907Z,99953.96
2018-08-09T23:08:07.269Z,99956.69
2018-08-09T23:10:39.509Z,99954.08
2018-08-09T23:13:10.476Z,99956.09
2018-08-09T23:15:40.879Z,99953.34
2018-08-09T23:18:11.100Z,99956.91
2018-08-09T23:20:42.038Z,99958.44
2018-08-09T23:23:12.548Z,99958.97
2018-08-09T23:25:42.832Z,99964.16
2018-08-09T23:28:13.023Z,99958.41
2018-08-09T23:30:43.201Z,99958.48
2018-08-09T23:33:13.349Z,99961.16
2018-08-09T23:35:43.453Z,99958.09
2018-08-09T23:38:13.239Z,99960.30
2018-08-09T23:40:43.064Z,99949.66
2018-08-09T23:43:14.265Z,99950.53
2018-08-09T23:45:44.081Z,99955.94
2018-08-09T23:48:14.153Z,99959.86
2018-08-09T23:50:44.001Z,99956.34
2018-08-09T23:53:13.960Z,99959.31
2018-08-09T23:55:43.941Z,99958.75
2018-08-09T23:58:13.891Z,99956.71
